SAT weather

San Antonio International Airport
San Antonio, Texas, United States

Public forecast

Using degrees Fahrenheit for public forecast. Weather courtesy of forecast.io.

METAR (pilot weather report)

Retrieved 2019/03/22 05:51 UTC (43 minutes ago):

KSAT 220551Z 16006KT 10SM BKN250 17/11 A3017 RMK AO2 SLP201 T01670111 10222 20156 402500106 51010

TAF (pilot weather forecast)

Retrieved 2019/03/22 06:22 UTC (12 minutes ago):

TAF KSAT 220520Z 2206/2312 16004KT P6SM FEW060 SCT250 FM221600 16011KT P6SM BKN050